createdAt,value
2018-03-07T00:01:08.777Z,24.17
2018-03-07T00:03:37.062Z,23.00
2018-03-07T00:06:05.332Z,25.97
2018-03-07T00:08:33.622Z,24.37
2018-03-07T00:11:01.912Z,24.23
2018-03-07T00:13:30.948Z,23.80
2018-03-07T00:15:59.260Z,25.47
2018-03-07T00:18:27.645Z,24.33
2018-03-07T00:20:55.965Z,22.70
2018-03-07T00:23:24.266Z,25.23
2018-03-07T00:25:52.589Z,24.90
2018-03-07T00:28:20.917Z,26.30
2018-03-07T00:30:49.206Z,23.27
2018-03-07T00:33:17.521Z,26.10
2018-03-07T00:35:45.797Z,25.40
2018-03-07T00:38:14.266Z,24.97
2018-03-07T00:40:42.545Z,23.17
2018-03-07T00:43:10.925Z,24.87
2018-03-07T00:45:39.202Z,25.53
2018-03-07T00:48:07.482Z,24.43
2018-03-07T00:50:35.801Z,25.53
2018-03-07T00:53:04.077Z,27.00
2018-03-07T00:55:32.429Z,23.70
2018-03-07T00:58:00.735Z,23.90
2018-03-07T01:00:29.798Z,24.73
2018-03-07T01:02:58.208Z,25.80
2018-03-07T01:05:27.232Z,22.37
2018-03-07T01:07:55.539Z,26.70
2018-03-07T01:10:23.794Z,24.40
2018-03-07T01:12:52.116Z,25.30
2018-03-07T01:15:21.164Z,23.90
2018-03-07T01:17:49.466Z,25.20
2018-03-07T01:20:17.756Z,22.83
2018-03-07T01:22:46.069Z,24.33
2018-03-07T01:25:14.344Z,25.30
2018-03-07T01:27:42.620Z,26.40
2018-03-07T01:30:10.954Z,24.23
2018-03-07T01:32:39.248Z,24.50
2018-03-07T01:35:07.539Z,23.70
2018-03-07T01:37:36.578Z,24.40
2018-03-07T01:40:05.066Z,25.43
2018-03-07T01:42:34.126Z,24.30
2018-03-07T01:45:02.435Z,22.10
2018-03-07T01:47:31.497Z,23.03
2018-03-07T01:49:59.760Z,25.70
2018-03-07T01:52:28.085Z,22.40
2018-03-07T01:54:57.162Z,25.27
2018-03-07T01:57:26.236Z,24.60
2018-03-07T01:59:54.526Z,21.83
2018-03-07T02:02:22.829Z,24.80
2018-03-07T02:04:51.904Z,25.13
2018-03-07T02:07:20.270Z,24.70
2018-03-07T02:09:48.604Z,22.37
2018-03-07T02:12:17.661Z,25.77
2018-03-07T02:14:45.944Z,24.97
2018-03-07T02:17:14.989Z,26.97
2018-03-07T02:19:43.286Z,23.27
2018-03-07T02:22:11.674Z,25.70
2018-03-07T02:24:39.960Z,25.67
2018-03-07T02:27:08.333Z,24.23
2018-03-07T02:29:36.726Z,25.43
2018-03-07T02:32:05.007Z,24.30
2018-03-07T02:34:34.083Z,24.80
2018-03-07T02:37:02.470Z,25.33
2018-03-07T02:39:31.512Z,25.43
2018-03-07T02:41:59.807Z,27.60
2018-03-07T02:44:28.126Z,27.03
2018-03-07T02:46:56.441Z,27.33
2018-03-07T02:49:24.716Z,24.00
2018-03-07T02:51:52.996Z,26.10
2018-03-07T02:54:21.305Z,28.20
2018-03-07T02:56:49.588Z,28.33
2018-03-07T02:59:17.911Z,29.50
2018-03-07T03:01:46.952Z,27.13
2018-03-07T03:04:15.245Z,26.17
2018-03-07T03:06:43.509Z,27.57
2018-03-07T03:09:11.827Z,30.17
2018-03-07T03:11:40.908Z,28.90
2018-03-07T03:14:09.174Z,26.10
2018-03-07T03:16:37.459Z,27.57
2018-03-07T03:19:06.654Z,29.73
2018-03-07T03:21:34.945Z,27.83
2018-03-07T03:24:03.313Z,28.07
2018-03-07T03:26:31.689Z,26.40
2018-03-07T03:28:59.955Z,25.87
2018-03-07T03:31:28.349Z,25.13
2018-03-07T03:33:56.623Z,28.47
2018-03-07T03:36:24.891Z,27.03
2018-03-07T03:38:53.170Z,25.47
2018-03-07T03:41:21.465Z,26.93
2018-03-07T03:43:49.767Z,23.83
2018-03-07T03:46:18.804Z,25.70
2018-03-07T03:48:47.110Z,26.87
2018-03-07T03:51:15.405Z,24.17
2018-03-07T03:53:44.434Z,23.20
2018-03-07T03:56:12.732Z,24.70
2018-03-07T03:58:41.012Z,26.67
2018-03-07T04:01:09.417Z,24.43
2018-03-07T04:03:37.685Z,26.53
2018-03-07T04:06:05.945Z,26.97
2018-03-07T04:08:34.260Z,25.37
2018-03-07T04:11:02.539Z,26.40
2018-03-07T04:13:31.619Z,24.27
2018-03-07T04:15:59.905Z,25.97
2018-03-07T04:18:28.276Z,25.80
2018-03-07T04:20:56.671Z,25.30
2018-03-07T04:23:24.969Z,27.03
2018-03-07T04:25:54.952Z,26.70
2018-03-07T04:28:23.328Z,25.20
2018-03-07T04:30:51.706Z,25.37
2018-03-07T04:33:20.090Z,26.00
2018-03-07T04:35:48.445Z,24.27
2018-03-07T04:38:16.744Z,26.00
2018-03-07T04:40:45.070Z,25.20
2018-03-07T04:43:14.103Z,25.20
2018-03-07T04:45:42.392Z,24.20
2018-03-07T04:48:10.712Z,27.47
2018-03-07T04:50:39.750Z,24.47
2018-03-07T04:53:08.151Z,23.83
2018-03-07T04:55:36.404Z,25.07
2018-03-07T04:58:04.711Z,26.37
2018-03-07T05:00:32.996Z,24.37
2018-03-07T05:03:02.084Z,24.60
2018-03-07T05:05:31.891Z,24.90
2018-03-07T05:08:00.371Z,26.60
2018-03-07T05:10:28.654Z,25.20
2018-03-07T05:12:56.917Z,24.13
2018-03-07T05:15:25.213Z,27.53
2018-03-07T05:17:54.263Z,26.53
2018-03-07T05:20:22.529Z,25.90
2018-03-07T05:22:50.957Z,28.17
2018-03-07T05:25:19.229Z,28.33
2018-03-07T05:27:47.507Z,26.33
2018-03-07T05:30:15.803Z,24.33
2018-03-07T05:32:44.088Z,28.23
2018-03-07T05:35:13.124Z,28.50
2018-03-07T05:37:41.455Z,27.83
2018-03-07T05:40:10.498Z,26.90
2018-03-07T05:42:38.911Z,27.37
2018-03-07T05:45:07.187Z,24.17
2018-03-07T05:47:35.470Z,25.23
2018-03-07T05:50:03.869Z,29.30
2018-03-07T05:52:32.224Z,29.50
2018-03-07T05:55:00.516Z,26.63
2018-03-07T05:57:28.805Z,26.47
2018-03-07T05:59:57.976Z,24.73
2018-03-07T06:02:26.227Z,26.20
2018-03-07T06:04:54.494Z,26.10
2018-03-07T06:07:22.783Z,26.43
2018-03-07T06:09:51.048Z,25.90
2018-03-07T06:12:19.340Z,25.23
2018-03-07T06:14:47.599Z,25.17
2018-03-07T06:17:15.905Z,27.53
2018-03-07T06:19:44.157Z,28.43
2018-03-07T06:22:12.478Z,28.00
2018-03-07T06:24:40.873Z,26.73
2018-03-07T06:27:09.947Z,25.70
2018-03-07T06:29:38.207Z,25.70
2018-03-07T06:32:06.513Z,28.83
2018-03-07T06:34:34.800Z,26.60
2018-03-07T06:37:03.154Z,26.93
2018-03-07T06:39:31.440Z,24.67
2018-03-07T06:41:59.821Z,26.97
2018-03-07T06:44:28.126Z,27.67
2018-03-07T06:46:57.209Z,27.90
2018-03-07T06:49:25.569Z,29.40
2018-03-07T06:51:54.615Z,27.37
2018-03-07T06:54:22.911Z,27.17
2018-03-07T06:56:52.110Z,26.57
2018-03-07T06:59:20.388Z,26.13
2018-03-07T07:01:48.675Z,26.40
2018-03-07T07:04:16.970Z,26.60
2018-03-07T07:06:45.283Z,27.03
2018-03-07T07:09:14.351Z,26.93
2018-03-07T07:11:43.411Z,25.80
2018-03-07T07:14:11.675Z,26.20
2018-03-07T07:16:39.944Z,26.40
2018-03-07T07:19:08.241Z,25.50
2018-03-07T07:21:36.548Z,25.93
2018-03-07T07:24:04.820Z,24.97
2018-03-07T07:26:33.075Z,25.90
2018-03-07T07:29:01.393Z,26.47
2018-03-07T07:31:29.758Z,28.87
2018-03-07T07:33:58.005Z,28.47
2018-03-07T07:36:26.305Z,26.27
2018-03-07T07:38:54.587Z,28.67
2018-03-07T07:41:22.978Z,27.40
2018-03-07T07:43:51.284Z,28.60
2018-03-07T07:46:20.446Z,28.07
2018-03-07T07:48:48.696Z,27.47
2018-03-07T07:51:16.988Z,27.83
2018-03-07T07:53:45.391Z,27.87
2018-03-07T07:56:13.684Z,31.00
2018-03-07T07:58:42.731Z,30.67
2018-03-07T08:01:11.034Z,32.80
2018-03-07T08:03:39.377Z,28.73
2018-03-07T08:06:07.667Z,28.20
2018-03-07T08:08:35.932Z,31.57
2018-03-07T08:11:04.228Z,28.17
2018-03-07T08:13:33.257Z,29.37
2018-03-07T08:16:02.304Z,32.47
2018-03-07T08:18:30.614Z,30.60
2018-03-07T08:20:58.912Z,29.87
2018-03-07T08:23:27.952Z,39.63
2018-03-07T08:25:56.240Z,29.50
2018-03-07T08:28:24.536Z,31.60
2018-03-07T08:30:52.812Z,31.27
2018-03-07T08:33:21.123Z,33.47
2018-03-07T08:35:50.145Z,32.83
2018-03-07T08:38:18.464Z,31.50
2018-03-07T08:40:46.720Z,35.20
2018-03-07T08:43:14.997Z,34.57
2018-03-07T08:45:43.298Z,34.27
2018-03-07T08:48:11.573Z,33.37
2018-03-07T08:50:40.054Z,36.97
2018-03-07T08:53:08.350Z,37.00
2018-03-07T08:55:36.631Z,37.10
2018-03-07T08:58:05.661Z,39.13
2018-03-07T09:00:33.944Z,34.47
2018-03-07T09:03:02.304Z,36.20
2018-03-07T09:05:31.352Z,36.67
2018-03-07T09:07:59.950Z,37.57
2018-03-07T09:10:28.209Z,43.33
2018-03-07T09:12:56.597Z,40.20
2018-03-07T09:15:24.871Z,34.50
2018-03-07T09:17:53.147Z,34.00
2018-03-07T09:20:21.424Z,34.37
2018-03-07T09:22:49.720Z,33.20
2018-03-07T09:25:18.008Z,31.97
2018-03-07T09:27:47.036Z,29.00
2018-03-07T09:30:15.354Z,30.40
2018-03-07T09:32:43.629Z,40.47
2018-03-07T09:35:11.906Z,25.53
2018-03-07T09:37:40.202Z,23.00
2018-03-07T09:40:08.568Z,26.27
2018-03-07T09:42:36.827Z,21.90
2018-03-07T09:45:05.144Z,24.17
2018-03-07T09:47:34.426Z,24.47
2018-03-07T09:50:02.716Z,22.60
2018-03-07T09:52:31.769Z,23.17
2018-03-07T09:55:00.172Z,20.13
2018-03-07T09:57:28.419Z,21.80
2018-03-07T09:59:56.697Z,25.60
2018-03-07T10:02:24.988Z,20.63
2018-03-07T10:04:53.287Z,22.53
2018-03-07T10:07:21.580Z,21.73
2018-03-07T10:09:51.268Z,20.63
2018-03-07T10:12:19.551Z,20.40
2018-03-07T10:14:47.816Z,19.77
2018-03-07T10:17:16.082Z,18.40
2018-03-07T10:19:44.369Z,16.83
2018-03-07T10:22:12.664Z,16.57
2018-03-07T10:24:40.945Z,15.73
2018-03-07T10:27:10.721Z,17.50
2018-03-07T10:29:39.005Z,15.70
2018-03-07T10:32:07.297Z,17.00
2018-03-07T10:34:35.543Z,17.70
2018-03-07T10:37:03.852Z,15.10
2018-03-07T10:39:32.232Z,15.67
2018-03-07T10:42:00.512Z,14.50
2018-03-07T10:44:28.890Z,16.50
2018-03-07T10:46:57.269Z,16.67
2018-03-07T10:49:25.553Z,16.10
2018-03-07T10:51:53.862Z,14.97
2018-03-07T10:54:23.001Z,15.93
2018-03-07T10:56:51.319Z,15.40
2018-03-07T10:59:20.410Z,16.63
2018-03-07T11:01:48.838Z,17.27
2018-03-07T11:04:18.011Z,15.37
2018-03-07T11:06:47.100Z,15.47
2018-03-07T11:09:16.200Z,16.87
2018-03-07T11:11:45.328Z,16.27
2018-03-07T11:14:13.635Z,19.13
2018-03-07T11:16:41.932Z,20.48
2018-03-07T11:19:10.228Z,18.90
2018-03-07T11:21:39.296Z,15.43
2018-03-07T11:24:07.562Z,16.77
2018-03-07T11:26:35.823Z,17.63
2018-03-07T11:29:04.116Z,17.10
2018-03-07T11:31:32.381Z,15.37
2018-03-07T11:34:00.675Z,17.50
2018-03-07T11:36:28.926Z,17.50
2018-03-07T11:38:57.218Z,16.93
2018-03-07T11:41:25.484Z,18.30
2018-03-07T11:43:53.769Z,15.97
2018-03-07T11:46:22.043Z,17.67
2018-03-07T11:48:50.352Z,17.40
2018-03-07T11:51:18.627Z,17.07
2018-03-07T11:53:46.996Z,16.43
2018-03-07T11:56:15.375Z,15.93
2018-03-07T11:58:43.659Z,17.23
2018-03-07T12:01:11.938Z,17.60
2018-03-07T12:03:40.309Z,17.80
2018-03-07T12:06:08.670Z,17.50
2018-03-07T12:08:36.936Z,18.00
2018-03-07T12:11:05.228Z,17.60
2018-03-07T12:13:33.555Z,19.07
2018-03-07T12:16:02.613Z,17.63
2018-03-07T12:18:30.893Z,17.90
2018-03-07T12:20:59.183Z,18.43
2018-03-07T12:23:27.554Z,19.47
2018-03-07T12:25:55.826Z,18.73
2018-03-07T12:28:24.087Z,18.70
2018-03-07T12:30:52.481Z,17.67
2018-03-07T12:33:20.863Z,18.50
2018-03-07T12:35:49.115Z,18.20
2018-03-07T12:38:17.405Z,17.67
2018-03-07T12:40:45.682Z,19.10
2018-03-07T12:43:13.979Z,18.60
2018-03-07T12:45:42.393Z,19.40
2018-03-07T12:48:11.460Z,19.73
2018-03-07T12:50:39.735Z,20.27
2018-03-07T12:53:08.795Z,20.53
2018-03-07T12:55:37.094Z,19.97
2018-03-07T12:58:05.392Z,20.77
2018-03-07T13:00:34.091Z,20.73
2018-03-07T13:03:03.156Z,20.27
2018-03-07T13:05:31.410Z,22.67
2018-03-07T13:07:59.731Z,22.60
2018-03-07T13:10:27.995Z,21.30
2018-03-07T13:12:56.265Z,23.23
2018-03-07T13:15:24.656Z,22.07
2018-03-07T13:17:52.899Z,23.10
2018-03-07T13:20:21.311Z,24.43
2018-03-07T13:22:49.586Z,25.17
2018-03-07T13:25:17.839Z,23.80
2018-03-07T13:27:46.125Z,22.90
2018-03-07T13:30:15.183Z,25.83
2018-03-07T13:32:43.567Z,24.37
2018-03-07T13:35:11.879Z,27.87
2018-03-07T13:37:40.976Z,23.17
2018-03-07T13:40:10.028Z,22.50
2018-03-07T13:42:38.293Z,25.77
2018-03-07T13:45:06.584Z,26.80
2018-03-07T13:47:34.866Z,26.97
2018-03-07T13:50:03.248Z,25.97
2018-03-07T13:52:31.652Z,26.30
2018-03-07T13:55:00.719Z,26.57
2018-03-07T13:57:29.005Z,26.70
2018-03-07T13:59:57.274Z,26.20
2018-03-07T14:02:25.654Z,29.10
2018-03-07T14:04:53.970Z,27.53
2018-03-07T14:07:23.028Z,25.47
2018-03-07T14:09:51.304Z,25.63
2018-03-07T14:12:19.588Z,27.67
2018-03-07T14:14:48.679Z,24.80
2018-03-07T14:17:16.976Z,27.80
2018-03-07T14:19:45.239Z,24.87
2018-03-07T14:22:13.607Z,26.97
2018-03-07T14:24:41.926Z,26.27
2018-03-07T14:27:10.975Z,27.37
2018-03-07T14:29:40.792Z,27.37
2018-03-07T14:32:09.182Z,27.70
2018-03-07T14:34:37.469Z,25.37
2018-03-07T14:37:06.554Z,26.97
2018-03-07T14:39:34.989Z,28.87
2018-03-07T14:42:03.261Z,25.57
2018-03-07T14:44:32.297Z,30.13
2018-03-07T14:47:00.681Z,26.97
2018-03-07T14:49:28.944Z,29.17
2018-03-07T14:51:57.240Z,29.33
2018-03-07T14:54:25.499Z,28.93
2018-03-07T14:56:53.796Z,23.63
2018-03-07T14:59:22.088Z,28.37
2018-03-07T15:01:50.367Z,29.90
2018-03-07T15:04:18.664Z,25.20
2018-03-07T15:06:47.732Z,25.23
2018-03-07T15:09:15.993Z,24.97
2018-03-07T15:11:44.324Z,25.80
2018-03-07T15:14:12.659Z,27.83
2018-03-07T15:16:41.097Z,27.17
2018-03-07T15:19:09.383Z,24.50
2018-03-07T15:21:38.414Z,28.33
2018-03-07T15:24:06.754Z,25.47
2018-03-07T15:26:35.031Z,27.37
2018-03-07T15:29:03.652Z,25.83
2018-03-07T15:31:31.908Z,27.50
2018-03-07T15:34:00.196Z,27.37
2018-03-07T15:36:28.526Z,24.63
2018-03-07T15:38:57.555Z,27.53
2018-03-07T15:41:25.851Z,25.20
2018-03-07T15:43:54.240Z,24.50
2018-03-07T15:46:22.519Z,27.57
2018-03-07T15:48:50.800Z,29.60
2018-03-07T15:51:19.084Z,26.80
2018-03-07T15:53:48.122Z,26.57
2018-03-07T15:56:16.392Z,27.10
2018-03-07T15:58:44.692Z,28.30
2018-03-07T16:01:12.965Z,26.33
2018-03-07T16:03:41.236Z,26.80
2018-03-07T16:06:09.537Z,27.30
2018-03-07T16:08:37.822Z,28.33
2018-03-07T16:11:06.090Z,25.43
2018-03-07T16:13:34.493Z,28.50
2018-03-07T16:16:02.768Z,27.30
2018-03-07T16:18:31.047Z,26.17
2018-03-07T16:20:59.416Z,29.83
2018-03-07T16:23:27.700Z,27.17
2018-03-07T16:25:55.960Z,28.37
2018-03-07T16:28:24.340Z,25.20
2018-03-07T16:30:52.610Z,25.80
2018-03-07T16:33:20.912Z,27.60
2018-03-07T16:35:49.224Z,26.00
2018-03-07T16:38:17.510Z,24.83
2018-03-07T16:43:21.161Z,24.60
2018-03-07T16:45:49.463Z,24.77
2018-03-07T16:48:17.834Z,23.60
2018-03-07T16:50:46.125Z,23.90
2018-03-07T16:53:14.396Z,28.10
2018-03-07T16:55:42.690Z,27.17
2018-03-07T16:58:11.735Z,30.27
2018-03-07T17:00:39.992Z,25.03
2018-03-07T17:03:08.302Z,27.27
2018-03-07T17:05:36.610Z,26.53
2018-03-07T17:08:04.983Z,27.50
2018-03-07T17:10:33.269Z,26.70
2018-03-07T17:13:01.600Z,27.90
2018-03-07T17:15:29.900Z,29.20
2018-03-07T17:17:58.420Z,26.87
2018-03-07T17:20:27.444Z,30.53
2018-03-07T17:22:55.768Z,29.10
2018-03-07T17:25:24.037Z,31.50
2018-03-07T17:27:52.420Z,31.40
2018-03-07T17:30:20.704Z,28.87
2018-03-07T17:32:49.108Z,28.40
2018-03-07T17:35:18.176Z,30.77
2018-03-07T17:37:46.486Z,29.10
2018-03-07T17:40:15.581Z,31.10
2018-03-07T17:42:44.685Z,27.57
2018-03-07T17:45:12.984Z,30.10
2018-03-07T17:47:41.268Z,26.80
2018-03-07T17:50:09.536Z,28.07
2018-03-07T17:52:37.953Z,28.17
2018-03-07T17:55:06.345Z,30.17
2018-03-07T17:57:34.604Z,29.90
2018-03-07T18:00:02.892Z,27.47
2018-03-07T18:02:31.176Z,28.83
2018-03-07T18:04:59.547Z,28.90
2018-03-07T18:07:27.821Z,27.73
2018-03-07T18:09:56.127Z,28.07
2018-03-07T18:12:25.183Z,26.63
2018-03-07T18:14:53.456Z,30.30
2018-03-07T18:17:21.850Z,30.87
2018-03-07T18:19:50.119Z,27.17
2018-03-07T18:22:18.517Z,25.57
2018-03-07T18:24:46.932Z,29.77
2018-03-07T18:27:15.205Z,28.97
2018-03-07T18:29:44.370Z,26.83
2018-03-07T18:32:12.796Z,24.40
2018-03-07T18:34:41.147Z,28.90
2018-03-07T18:37:09.414Z,27.10
2018-03-07T18:39:37.732Z,28.97
2018-03-07T18:42:05.994Z,26.30
2018-03-07T18:44:35.028Z,27.47
2018-03-07T18:47:03.352Z,28.77
2018-03-07T18:49:31.843Z,25.57
2018-03-07T18:52:00.148Z,26.77
2018-03-07T18:54:28.673Z,24.90
2018-03-07T18:56:57.056Z,26.50
2018-03-07T18:59:25.343Z,29.53
2018-03-07T19:01:54.376Z,25.47
2018-03-07T19:04:23.579Z,26.27
2018-03-07T19:06:51.848Z,23.67
2018-03-07T19:09:20.132Z,26.63
2018-03-07T19:11:48.427Z,23.20
2018-03-07T19:14:16.728Z,23.97
2018-03-07T19:16:45.026Z,24.97
2018-03-07T19:19:13.308Z,22.67
2018-03-07T19:21:42.363Z,24.60
2018-03-07T19:24:10.659Z,24.43
2018-03-07T19:26:38.931Z,23.60
2018-03-07T19:29:07.244Z,25.47
2018-03-07T19:31:36.269Z,26.37
2018-03-07T19:34:04.550Z,25.73
2018-03-07T19:36:32.933Z,24.43
2018-03-07T19:39:01.208Z,23.10
2018-03-07T19:41:29.529Z,24.60
2018-03-07T19:43:57.795Z,25.90
2018-03-07T19:46:27.582Z,21.60
2018-03-07T19:48:55.884Z,24.40
2018-03-07T19:51:24.343Z,23.67
2018-03-07T19:53:52.638Z,22.30
2018-03-07T19:56:20.919Z,22.77
2018-03-07T19:58:49.188Z,24.33
2018-03-07T20:01:17.514Z,21.83
2018-03-07T20:03:46.574Z,24.07
2018-03-07T20:06:14.865Z,23.30
2018-03-07T20:08:43.144Z,23.83
2018-03-07T20:11:11.458Z,24.80
2018-03-07T20:13:39.743Z,23.37
2018-03-07T20:16:08.009Z,26.17
2018-03-07T20:18:36.326Z,26.03
2018-03-07T20:21:04.601Z,24.70
2018-03-07T20:23:32.867Z,27.77
2018-03-07T20:26:01.167Z,25.13
2018-03-07T20:28:29.453Z,28.30
2018-03-07T20:30:57.789Z,29.50
2018-03-07T20:33:26.069Z,28.37
2018-03-07T20:35:54.367Z,26.17
2018-03-07T20:38:22.665Z,30.20
2018-03-07T20:40:50.956Z,29.27
2018-03-07T20:43:20.104Z,29.20
2018-03-07T20:45:48.425Z,31.40
2018-03-07T20:48:16.893Z,24.17
2018-03-07T20:50:45.178Z,27.80
2018-03-07T20:53:14.257Z,31.43
2018-03-07T20:55:42.605Z,29.00
2018-03-07T20:58:10.879Z,29.37
2018-03-07T21:00:39.208Z,31.33
2018-03-07T21:03:07.485Z,29.57
2018-03-07T21:05:35.759Z,26.60
2018-03-07T21:08:04.056Z,28.50
2018-03-07T21:10:32.335Z,28.17
2018-03-07T21:13:01.396Z,26.37
2018-03-07T21:15:29.664Z,25.67
2018-03-07T21:17:57.955Z,27.47
2018-03-07T21:20:26.405Z,26.20
2018-03-07T21:22:54.696Z,26.93
2018-03-07T21:25:23.046Z,25.23
2018-03-07T21:27:51.324Z,24.30
2018-03-07T21:30:19.637Z,27.87
2018-03-07T21:32:48.004Z,25.40
2018-03-07T21:35:16.316Z,24.30
2018-03-07T21:37:44.635Z,25.60
2018-03-07T21:40:12.961Z,25.07
2018-03-07T21:42:41.227Z,25.90
2018-03-07T21:45:09.526Z,25.03
2018-03-07T21:47:37.865Z,23.47
2018-03-07T21:50:06.171Z,22.00
2018-03-07T21:52:34.455Z,26.53
2018-03-07T21:55:02.819Z,25.90
2018-03-07T21:57:31.141Z,24.60
2018-03-07T22:00:00.177Z,25.00
2018-03-07T22:02:28.459Z,25.40
2018-03-07T22:04:56.743Z,24.73
2018-03-07T22:07:25.144Z,24.77
2018-03-07T22:09:53.619Z,24.90
2018-03-07T22:12:21.891Z,25.80
2018-03-07T22:14:50.184Z,27.20
2018-03-07T22:17:18.452Z,29.40
2018-03-07T22:19:46.763Z,25.80
2018-03-07T22:22:15.799Z,26.70
2018-03-07T22:24:44.111Z,26.90
2018-03-07T22:27:12.431Z,28.27
2018-03-07T22:29:41.478Z,29.30
2018-03-07T22:32:09.767Z,28.00
2018-03-07T22:34:38.827Z,32.30
2018-03-07T22:37:07.131Z,28.33
2018-03-07T22:39:35.427Z,32.03
2018-03-07T22:42:04.459Z,29.33
2018-03-07T22:44:32.816Z,38.00
2018-03-07T22:47:01.097Z,33.17
2018-03-07T22:49:30.157Z,29.37
2018-03-07T22:51:58.491Z,31.77
2018-03-07T22:54:27.674Z,33.30
2018-03-07T22:56:56.809Z,31.87
2018-03-07T22:59:25.080Z,28.37
2018-03-07T23:01:53.442Z,27.60
2018-03-07T23:04:21.769Z,31.40
2018-03-07T23:06:50.138Z,31.50
2018-03-07T23:09:18.470Z,29.27
2018-03-07T23:11:46.754Z,31.13
2018-03-07T23:14:15.116Z,30.33
2018-03-07T23:16:43.396Z,30.90
2018-03-07T23:19:11.713Z,31.57
2018-03-07T23:21:40.070Z,29.33
2018-03-07T23:24:08.486Z,32.20
2018-03-07T23:26:36.794Z,30.17
2018-03-07T23:29:05.872Z,33.97
2018-03-07T23:31:34.137Z,32.27
2018-03-07T23:34:02.521Z,29.73
2018-03-07T23:36:30.803Z,31.70
2018-03-07T23:39:00.651Z,30.47
2018-03-07T23:41:28.931Z,27.90
2018-03-07T23:43:57.234Z,30.03
2018-03-07T23:46:25.580Z,29.70
2018-03-07T23:48:53.933Z,29.67
2018-03-07T23:51:22.252Z,30.17
2018-03-07T23:53:50.522Z,32.23
2018-03-07T23:56:18.803Z,31.67
2018-03-07T23:58:47.095Z,33.10
